createdAt,value
2023-02-23T00:00:29.295Z,3.37
2023-02-23T00:03:00.860Z,3.40
2023-02-23T00:05:30.643Z,3.50
2023-02-23T00:07:58.982Z,3.23
2023-02-23T00:10:30.301Z,3.10
2023-02-23T00:12:59.201Z,3.30
2023-02-23T00:15:29.739Z,3.10
2023-02-23T00:17:58.499Z,3.37
2023-02-23T00:20:27.585Z,2.97
2023-02-23T00:22:56.407Z,2.77
2023-02-23T00:25:25.943Z,2.87
2023-02-23T00:27:54.718Z,3.33
2023-02-23T00:30:23.149Z,3.07
2023-02-23T00:32:53.371Z,3.20
2023-02-23T00:35:21.216Z,3.20
2023-02-23T00:37:49.909Z,3.13
2023-02-23T00:40:22.871Z,3.40
2023-02-23T00:42:52.113Z,3.50
2023-02-23T00:45:20.387Z,3.80
2023-02-23T00:47:48.917Z,3.33
2023-02-23T00:50:19.451Z,3.30
2023-02-23T00:52:47.236Z,3.40
2023-02-23T00:55:16.028Z,3.40
2023-02-23T00:57:43.813Z,4.00
2023-02-23T01:00:20.422Z,3.70
2023-02-23T01:02:48.790Z,3.43
2023-02-23T01:05:18.330Z,3.70
2023-02-23T01:07:47.281Z,3.67
2023-02-23T01:10:21.550Z,3.73
2023-02-23T01:12:50.583Z,4.43
2023-02-23T01:15:19.635Z,4.20
2023-02-23T01:17:48.185Z,4.67
2023-02-23T01:20:19.113Z,4.13
2023-02-23T01:22:48.934Z,3.80
2023-02-23T01:25:16.904Z,4.47
2023-02-23T01:27:45.177Z,3.70
2023-02-23T01:30:15.968Z,3.93
2023-02-23T01:32:43.696Z,4.30
2023-02-23T01:35:13.691Z,4.33
2023-02-23T01:37:43.977Z,4.27
2023-02-23T01:40:15.501Z,3.90
2023-02-23T01:42:45.516Z,4.30
2023-02-23T01:45:24.544Z,4.40
2023-02-23T01:47:55.452Z,5.27
2023-02-23T01:50:25.018Z,5.50
2023-02-23T01:52:56.617Z,5.17
2023-02-23T01:55:29.028Z,5.60
2023-02-23T01:58:04.924Z,5.90
2023-02-23T02:00:36.539Z,4.83
2023-02-23T02:03:11.917Z,4.47
2023-02-23T02:05:40.339Z,4.23
2023-02-23T02:08:11.469Z,4.20
2023-02-23T02:10:45.938Z,4.23
2023-02-23T02:13:20.346Z,4.67
2023-02-23T02:16:13.054Z,4.10
2023-02-23T02:19:08.764Z,3.43
2023-02-23T02:22:11.004Z,4.30
2023-02-23T02:25:19.319Z,4.10
2023-02-23T02:28:22.094Z,3.90
2023-02-23T02:31:19.527Z,4.43
2023-02-23T02:34:12.423Z,4.40
2023-02-23T02:37:13.655Z,3.90
2023-02-23T02:39:48.047Z,4.20
2023-02-23T02:42:24.498Z,4.30
2023-02-23T02:45:00.419Z,5.03
2023-02-23T02:47:34.875Z,4.43
2023-02-23T02:50:08.095Z,4.80
2023-02-23T02:52:41.906Z,4.80
2023-02-23T02:55:16.010Z,5.07
2023-02-23T02:57:47.050Z,4.60
2023-02-23T03:00:37.088Z,4.57
2023-02-23T03:03:23.382Z,4.10
2023-02-23T03:06:13.040Z,4.67
2023-02-23T03:09:06.787Z,4.87
2023-02-23T03:11:57.224Z,4.87
2023-02-23T03:14:47.974Z,4.47
2023-02-23T03:17:42.976Z,3.93
2023-02-23T03:20:39.335Z,4.10
2023-02-23T03:23:35.025Z,4.33
2023-02-23T03:26:27.354Z,4.33
2023-02-23T03:29:20.995Z,4.60
2023-02-23T03:32:12.166Z,4.30
2023-02-23T03:35:02.992Z,4.87
2023-02-23T03:37:54.073Z,4.20
2023-02-23T03:40:41.871Z,4.90
2023-02-23T03:43:33.879Z,5.10
2023-02-23T03:46:21.758Z,5.40
2023-02-23T03:49:08.824Z,4.87
2023-02-23T03:51:57.966Z,4.37
2023-02-23T03:54:50.112Z,4.03
2023-02-23T03:57:38.561Z,4.97
2023-02-23T04:00:29.076Z,5.03
2023-02-23T04:03:18.127Z,4.70
2023-02-23T04:06:05.359Z,4.70
2023-02-23T04:08:55.020Z,4.63
2023-02-23T04:11:46.628Z,4.73
2023-02-23T04:14:20.339Z,4.90
2023-02-23T04:16:48.637Z,4.40
2023-02-23T04:19:16.544Z,4.77
2023-02-23T04:21:44.329Z,4.37
2023-02-23T04:24:12.421Z,4.33
2023-02-23T04:26:40.211Z,4.43
2023-02-23T04:29:08.007Z,4.37
2023-02-23T04:31:35.789Z,4.37
2023-02-23T04:34:05.586Z,5.27
2023-02-23T04:36:33.365Z,4.33
2023-02-23T04:39:01.280Z,4.70
2023-02-23T04:41:29.175Z,5.30
2023-02-23T04:43:57.327Z,5.53
2023-02-23T04:46:25.739Z,5.27
2023-02-23T04:48:53.505Z,5.20
2023-02-23T04:51:22.636Z,4.83
2023-02-23T04:53:50.461Z,4.53
2023-02-23T04:56:18.215Z,4.67
2023-02-23T04:58:45.959Z,4.43
2023-02-23T05:01:13.741Z,5.43
2023-02-23T05:03:41.547Z,5.43
2023-02-23T05:06:09.330Z,4.37
2023-02-23T05:08:38.432Z,4.80
2023-02-23T05:11:07.561Z,4.43
2023-02-23T05:13:35.543Z,4.37
2023-02-23T05:16:03.396Z,5.03
2023-02-23T05:18:31.228Z,5.30
2023-02-23T05:21:03.686Z,5.00
2023-02-23T05:23:31.446Z,4.90
2023-02-23T05:26:05.759Z,5.23
2023-02-23T05:28:34.603Z,5.03
2023-02-23T05:31:03.542Z,4.93
2023-02-23T05:33:31.487Z,5.10
2023-02-23T05:35:59.282Z,5.00
2023-02-23T05:38:27.710Z,4.57
2023-02-23T05:40:55.487Z,5.00
2023-02-23T05:43:24.619Z,4.87
2023-02-23T05:45:52.467Z,4.90
2023-02-23T05:48:20.256Z,4.93
2023-02-23T05:50:48.028Z,4.53
2023-02-23T05:53:15.814Z,4.50
2023-02-23T05:55:43.608Z,4.47
2023-02-23T05:58:11.412Z,5.07
2023-02-23T06:00:40.511Z,5.30
2023-02-23T06:03:08.283Z,5.23
2023-02-23T06:05:36.046Z,5.60
2023-02-23T06:08:03.836Z,5.90
2023-02-23T06:10:31.605Z,5.53
2023-02-23T06:12:59.358Z,5.73
2023-02-23T06:15:29.093Z,5.77
2023-02-23T06:17:59.051Z,5.27
2023-02-23T06:20:26.953Z,5.33
2023-02-23T06:22:54.864Z,5.43
2023-02-23T06:25:22.638Z,5.40
2023-02-23T06:27:50.401Z,5.70
2023-02-23T06:30:18.981Z,5.47
2023-02-23T06:32:46.820Z,5.50
2023-02-23T06:35:16.013Z,5.50
2023-02-23T06:37:44.257Z,5.40
2023-02-23T06:40:13.052Z,5.53
2023-02-23T06:42:40.830Z,5.23
2023-02-23T06:45:10.821Z,5.97
2023-02-23T06:47:38.717Z,5.80
2023-02-23T06:50:07.502Z,5.30
2023-02-23T06:52:36.703Z,5.33
2023-02-23T06:55:04.878Z,4.70
2023-02-23T06:57:32.735Z,5.07
2023-02-23T07:00:01.576Z,6.03
2023-02-23T07:02:29.417Z,5.30
2023-02-23T07:04:58.606Z,5.63
2023-02-23T07:07:26.364Z,5.67
2023-02-23T07:09:55.486Z,5.40
2023-02-23T07:12:23.292Z,5.23
2023-02-23T07:14:51.062Z,5.63
2023-02-23T07:17:18.816Z,6.00
2023-02-23T07:19:46.588Z,5.37
2023-02-23T07:22:14.414Z,5.60
2023-02-23T07:24:42.161Z,5.03
2023-02-23T07:27:11.308Z,5.33
2023-02-23T07:29:39.066Z,5.50
2023-02-23T07:32:07.122Z,5.90
2023-02-23T07:34:35.021Z,5.50
2023-02-23T07:37:02.816Z,5.23
2023-02-23T07:39:30.903Z,5.43
2023-02-23T07:41:58.719Z,6.67
2023-02-23T07:44:27.962Z,6.03
2023-02-23T07:46:55.731Z,6.30
2023-02-23T07:49:23.464Z,5.60
2023-02-23T07:51:51.250Z,7.37
2023-02-23T07:54:19.037Z,6.67
2023-02-23T07:56:46.792Z,7.97
2023-02-23T07:59:15.223Z,8.63
2023-02-23T08:01:44.475Z,7.77
2023-02-23T08:04:12.283Z,8.47
2023-02-23T08:06:40.097Z,7.63
2023-02-23T08:09:08.206Z,7.97
2023-02-23T08:11:36.000Z,7.70
2023-02-23T08:14:03.821Z,9.30
2023-02-23T08:16:33.424Z,7.67
2023-02-23T08:19:03.062Z,8.67
2023-02-23T08:21:33.254Z,7.73
2023-02-23T08:24:01.019Z,7.53
2023-02-23T08:26:28.809Z,8.97
2023-02-23T08:28:56.977Z,10.90
2023-02-23T08:31:26.135Z,8.83
2023-02-23T08:33:54.593Z,7.87
2023-02-23T08:36:23.921Z,8.90
2023-02-23T08:38:54.049Z,7.50
2023-02-23T08:41:22.689Z,8.93
2023-02-23T08:43:50.435Z,8.03
2023-02-23T08:46:20.154Z,8.10
2023-02-23T08:48:48.046Z,9.00
2023-02-23T08:51:17.117Z,8.80
2023-02-23T08:53:46.354Z,8.23
2023-02-23T08:56:15.226Z,9.60
2023-02-23T08:58:44.044Z,7.53
2023-02-23T09:01:18.745Z,7.73
2023-02-23T09:03:46.787Z,8.60
2023-02-23T09:06:18.159Z,8.43
2023-02-23T09:08:47.612Z,9.00
2023-02-23T09:11:15.404Z,10.70
2023-02-23T09:13:43.535Z,9.87
2023-02-23T09:16:11.490Z,9.80
2023-02-23T09:18:40.023Z,9.10
2023-02-23T09:21:10.786Z,9.10
2023-02-23T09:23:38.816Z,9.73
2023-02-23T09:26:09.374Z,9.27
2023-02-23T09:28:38.070Z,8.60
2023-02-23T09:31:07.908Z,8.47
2023-02-23T09:33:35.899Z,10.20
2023-02-23T09:36:07.096Z,12.97
2023-02-23T09:38:34.939Z,13.27
2023-02-23T09:41:02.746Z,12.83
2023-02-23T09:43:38.664Z,18.37
2023-02-23T09:46:15.783Z,13.90
2023-02-23T09:48:43.954Z,14.43
2023-02-23T09:51:18.624Z,12.30
2023-02-23T09:53:51.615Z,17.13
2023-02-23T09:56:23.565Z,17.40
2023-02-23T09:58:53.243Z,16.53
2023-02-23T10:01:54.353Z,17.03
2023-02-23T10:04:24.877Z,19.10
2023-02-23T10:06:58.838Z,16.83
2023-02-23T10:09:39.022Z,13.13
2023-02-23T10:12:11.204Z,12.83
2023-02-23T10:15:11.161Z,12.83
2023-02-23T10:17:47.203Z,20.27
2023-02-23T10:20:23.223Z,16.33
2023-02-23T10:22:52.186Z,15.03
2023-02-23T10:25:25.437Z,12.90
2023-02-23T10:27:55.608Z,12.80
2023-02-23T10:30:26.606Z,16.60
2023-02-23T10:33:00.264Z,22.00
2023-02-23T10:35:30.907Z,17.53
2023-02-23T10:37:59.318Z,17.17
2023-02-23T10:40:29.616Z,14.73
2023-02-23T10:42:58.914Z,14.10
2023-02-23T10:45:30.191Z,12.30
2023-02-23T10:48:01.381Z,12.57
2023-02-23T10:50:29.967Z,11.80
2023-02-23T10:53:01.850Z,17.13
2023-02-23T10:55:31.468Z,16.23
2023-02-23T10:58:04.763Z,15.13
2023-02-23T11:00:41.954Z,16.13
2023-02-23T11:03:20.069Z,13.50
2023-02-23T11:05:50.401Z,20.33
2023-02-23T11:08:29.187Z,15.10
2023-02-23T11:11:03.400Z,12.73
2023-02-23T11:13:37.841Z,15.43
2023-02-23T11:16:11.020Z,13.93
2023-02-23T11:18:41.770Z,13.13
2023-02-23T11:21:22.417Z,15.63
2023-02-23T11:23:52.471Z,15.40
2023-02-23T11:26:24.890Z,14.43
2023-02-23T11:28:55.395Z,12.37
2023-02-23T11:31:31.046Z,15.90
2023-02-23T11:34:00.053Z,13.07
2023-02-23T11:36:30.259Z,11.33
2023-02-23T11:39:04.469Z,12.73
2023-02-23T11:41:35.021Z,9.97
2023-02-23T11:44:06.039Z,12.83
2023-02-23T11:46:39.678Z,10.17
2023-02-23T11:49:09.871Z,10.47
2023-02-23T11:51:40.032Z,10.70
2023-02-23T11:54:20.580Z,9.63
2023-02-23T11:56:52.007Z,9.80
2023-02-23T11:59:22.380Z,9.33
2023-02-23T12:01:55.258Z,10.40
2023-02-23T12:04:31.168Z,11.27
2023-02-23T12:07:29.513Z,10.60
2023-02-23T12:10:03.890Z,16.87
2023-02-23T12:12:36.610Z,13.37
2023-02-23T12:15:14.607Z,12.70
2023-02-23T12:17:50.477Z,11.37
2023-02-23T12:20:22.494Z,15.33
2023-02-23T12:22:53.473Z,13.43
2023-02-23T12:25:26.846Z,16.50
2023-02-23T12:28:10.379Z,15.00
2023-02-23T12:30:49.521Z,13.67
2023-02-23T12:33:28.151Z,13.10
2023-02-23T12:36:00.462Z,12.80
2023-02-23T12:38:40.736Z,14.70
2023-02-23T12:41:13.817Z,13.50
2023-02-23T12:43:49.144Z,12.73
2023-02-23T12:46:22.811Z,12.13
2023-02-23T12:49:05.135Z,12.90
2023-02-23T12:51:36.334Z,15.57
2023-02-23T12:54:05.609Z,14.97
2023-02-23T12:56:49.908Z,12.70
2023-02-23T12:59:32.888Z,11.47
2023-02-23T13:02:03.022Z,11.97
2023-02-23T13:04:58.176Z,10.80
2023-02-23T13:07:35.380Z,9.23
2023-02-23T13:10:13.326Z,11.33
2023-02-23T13:12:49.799Z,8.40
2023-02-23T13:15:29.208Z,10.03
2023-02-23T13:18:03.595Z,9.27
2023-02-23T13:20:36.191Z,9.90
2023-02-23T13:23:14.617Z,8.33
2023-02-23T13:25:50.980Z,8.67
2023-02-23T13:28:28.104Z,7.57
2023-02-23T13:30:56.606Z,9.17
2023-02-23T13:33:41.931Z,10.13
2023-02-23T13:36:13.740Z,8.87
2023-02-23T13:38:50.882Z,9.10
2023-02-23T13:41:33.318Z,9.30
2023-02-23T13:44:08.999Z,9.00
2023-02-23T13:46:46.686Z,8.67
2023-02-23T13:49:28.464Z,9.10
2023-02-23T13:52:00.409Z,7.77
2023-02-23T13:54:34.347Z,9.23
2023-02-23T13:57:05.471Z,9.70
2023-02-23T13:59:39.673Z,9.03
2023-02-23T14:02:33.141Z,10.00
2023-02-23T14:05:05.103Z,9.00
2023-02-23T14:07:40.155Z,8.33
2023-02-23T14:10:11.489Z,8.10
2023-02-23T14:12:40.910Z,8.80
2023-02-23T14:15:41.583Z,9.10
2023-02-23T14:18:34.268Z,8.07
2023-02-23T14:21:14.527Z,8.47
2023-02-23T14:24:02.798Z,8.50
2023-02-23T14:26:42.841Z,8.10
2023-02-23T14:29:29.537Z,8.20
2023-02-23T14:32:00.690Z,9.63
2023-02-23T14:34:47.016Z,9.33
2023-02-23T14:37:22.044Z,9.10
2023-02-23T14:39:52.920Z,9.70
2023-02-23T14:42:24.824Z,9.37
2023-02-23T14:44:54.023Z,8.50
2023-02-23T14:47:24.027Z,8.67
2023-02-23T14:49:56.869Z,8.27
2023-02-23T14:52:27.675Z,7.53
2023-02-23T14:55:14.982Z,6.93
2023-02-23T14:57:44.454Z,7.30
2023-02-23T15:00:23.026Z,7.67
2023-02-23T15:02:56.931Z,9.87
2023-02-23T15:05:27.914Z,8.00
2023-02-23T15:07:59.877Z,8.13
2023-02-23T15:10:31.892Z,7.77
2023-02-23T15:13:01.129Z,9.77
2023-02-23T15:15:30.645Z,9.23
2023-02-23T15:18:04.535Z,10.13
2023-02-23T15:23:04.211Z,7.77
2023-02-23T15:25:38.912Z,10.73
2023-02-23T15:28:13.519Z,9.13
2023-02-23T15:30:47.459Z,10.23
2023-02-23T15:33:23.404Z,9.67
2023-02-23T15:35:55.712Z,9.53
2023-02-23T15:38:42.373Z,9.97
2023-02-23T15:41:18.810Z,9.00
2023-02-23T15:43:46.850Z,9.47
2023-02-23T15:46:23.950Z,11.97
2023-02-23T15:48:53.911Z,11.00
2023-02-23T15:51:28.527Z,10.90
2023-02-23T15:53:56.748Z,10.93
2023-02-23T15:56:27.683Z,10.07
2023-02-23T15:58:59.437Z,9.87
2023-02-23T16:01:30.190Z,10.07
2023-02-23T16:04:01.677Z,10.33
2023-02-23T16:06:34.934Z,9.93
2023-02-23T16:09:19.813Z,11.40
2023-02-23T16:11:53.373Z,11.30
2023-02-23T16:14:22.857Z,11.07
2023-02-23T16:17:08.456Z,10.23
2023-02-23T16:19:40.905Z,9.73
2023-02-23T16:22:20.552Z,10.93
2023-02-23T16:24:59.926Z,9.87
2023-02-23T16:27:30.449Z,10.00
2023-02-23T16:30:01.279Z,9.23
2023-02-23T16:32:37.806Z,9.20
2023-02-23T16:35:16.622Z,9.63
2023-02-23T16:38:02.864Z,10.17
2023-02-23T16:40:30.911Z,11.90
2023-02-23T16:43:00.077Z,11.83
2023-02-23T16:45:29.380Z,11.63
2023-02-23T16:48:01.914Z,10.77
2023-02-23T16:50:30.459Z,13.60
2023-02-23T16:52:58.233Z,12.23
2023-02-23T16:55:28.150Z,10.63
2023-02-23T16:57:58.618Z,13.77
2023-02-23T17:00:31.136Z,11.83
2023-02-23T17:03:00.383Z,11.00
2023-02-23T17:05:29.965Z,13.70
2023-02-23T17:07:58.857Z,11.67
2023-02-23T17:10:29.090Z,12.47
2023-02-23T17:13:00.034Z,11.70
2023-02-23T17:15:31.811Z,11.67
2023-02-23T17:17:59.586Z,10.90
2023-02-23T17:20:29.456Z,10.47
2023-02-23T17:22:59.091Z,11.27
2023-02-23T17:25:27.629Z,10.17
2023-02-23T17:27:55.713Z,14.00
2023-02-23T17:30:24.445Z,12.33
2023-02-23T17:32:55.669Z,10.90
2023-02-23T17:35:23.992Z,11.97
2023-02-23T17:37:52.016Z,13.53
2023-02-23T17:40:25.972Z,11.50
2023-02-23T17:42:53.790Z,12.00
2023-02-23T17:45:22.469Z,10.77
2023-02-23T17:47:50.394Z,11.97
2023-02-23T17:50:21.460Z,11.63
2023-02-23T17:52:49.973Z,11.67
2023-02-23T17:55:18.623Z,11.37
2023-02-23T17:57:46.527Z,12.57
2023-02-23T18:00:16.569Z,12.73
2023-02-23T18:02:45.862Z,14.03
2023-02-23T18:05:14.809Z,13.97
2023-02-23T18:07:46.478Z,13.30
2023-02-23T18:10:16.600Z,14.23
2023-02-23T18:12:44.451Z,13.67
2023-02-23T18:15:12.323Z,13.60
2023-02-23T18:17:40.163Z,12.83
2023-02-23T18:20:08.818Z,12.37
2023-02-23T18:22:36.584Z,13.03
2023-02-23T18:25:06.695Z,13.73
2023-02-23T18:27:34.557Z,15.37
2023-02-23T18:30:02.370Z,14.40
2023-02-23T18:32:30.292Z,13.97
2023-02-23T18:34:58.186Z,13.37
2023-02-23T18:37:28.700Z,11.70
2023-02-23T18:39:57.894Z,14.40
2023-02-23T18:42:27.103Z,13.87
2023-02-23T18:44:54.901Z,14.77
2023-02-23T18:47:22.648Z,15.00
2023-02-23T18:49:52.609Z,14.73
2023-02-23T18:52:20.397Z,15.57
2023-02-23T18:54:48.267Z,16.67
2023-02-23T18:57:16.073Z,15.83
2023-02-23T18:59:45.931Z,13.80
2023-02-23T19:02:13.740Z,15.50
2023-02-23T19:04:41.733Z,18.20
2023-02-23T19:07:09.518Z,19.17
2023-02-23T19:09:40.653Z,17.00
2023-02-23T19:12:08.737Z,15.77
2023-02-23T19:14:48.958Z,15.10
2023-02-23T19:17:18.994Z,14.97
2023-02-23T19:19:46.793Z,13.60
2023-02-23T19:22:14.569Z,13.80
2023-02-23T19:24:42.411Z,14.20
2023-02-23T19:27:10.922Z,14.10
2023-02-23T19:29:38.893Z,14.57
2023-02-23T19:32:06.916Z,15.20
2023-02-23T19:34:36.393Z,15.93
2023-02-23T19:37:04.540Z,15.57
2023-02-23T19:39:32.497Z,18.23
2023-02-23T19:42:00.274Z,20.33
2023-02-23T19:44:28.090Z,19.70
2023-02-23T19:46:56.977Z,17.87
2023-02-23T19:49:25.533Z,19.00
2023-02-23T19:51:54.681Z,18.30
2023-02-23T19:54:22.476Z,17.80
2023-02-23T19:56:50.460Z,18.90
2023-02-23T19:59:18.235Z,17.00
2023-02-23T20:01:46.023Z,17.23
2023-02-23T20:04:13.861Z,17.17
2023-02-23T20:06:46.831Z,16.90
2023-02-23T20:09:16.287Z,16.10
2023-02-23T20:11:44.025Z,16.33
2023-02-23T20:14:12.368Z,14.33
2023-02-23T20:16:40.251Z,15.23
2023-02-23T20:19:08.142Z,16.13
2023-02-23T20:21:36.637Z,16.57
2023-02-23T20:24:05.372Z,18.87
2023-02-23T20:26:36.839Z,17.73
2023-02-23T20:29:06.655Z,17.50
2023-02-23T20:31:36.335Z,18.43
2023-02-23T20:34:07.481Z,16.40
2023-02-23T20:36:35.505Z,16.13
2023-02-23T20:39:03.753Z,15.87
2023-02-23T20:41:31.930Z,16.07
2023-02-23T20:44:01.625Z,15.03
2023-02-23T20:46:30.323Z,15.90
2023-02-23T20:48:59.142Z,16.57
2023-02-23T20:51:27.155Z,15.53
2023-02-23T20:53:55.013Z,15.07
2023-02-23T20:56:23.132Z,15.80
2023-02-23T20:58:54.129Z,22.43
2023-02-23T21:01:26.003Z,21.73
2023-02-23T21:03:55.499Z,18.87
2023-02-23T21:06:26.184Z,20.27
2023-02-23T21:08:55.581Z,20.80
2023-02-23T21:11:25.964Z,18.83
2023-02-23T21:13:54.053Z,17.63
2023-02-23T21:16:24.470Z,17.73
2023-02-23T21:19:03.763Z,16.13
2023-02-23T21:21:32.663Z,14.33
2023-02-23T21:24:00.484Z,13.93
2023-02-23T21:26:30.358Z,12.93
2023-02-23T21:28:58.595Z,15.87
2023-02-23T21:31:27.873Z,15.53
2023-02-23T21:33:55.849Z,17.30
2023-02-23T21:36:23.747Z,17.00
2023-02-23T21:38:51.548Z,16.10
2023-02-23T21:41:19.677Z,16.60
2023-02-23T21:43:53.225Z,16.83
2023-02-23T21:46:22.916Z,15.63
2023-02-23T21:48:52.202Z,15.67
2023-02-23T21:51:20.490Z,16.10
2023-02-23T21:53:48.525Z,16.10
2023-02-23T21:56:18.041Z,16.50
2023-02-23T21:58:47.743Z,16.00
2023-02-23T22:01:17.725Z,16.77
2023-02-23T22:03:45.812Z,17.30
2023-02-23T22:06:16.363Z,16.67
2023-02-23T22:08:44.764Z,17.23
2023-02-23T22:11:17.125Z,15.30
2023-02-23T22:13:45.622Z,14.50
2023-02-23T22:16:14.330Z,14.87
2023-02-23T22:18:42.633Z,15.47
2023-02-23T22:21:11.578Z,14.20
2023-02-23T22:23:43.677Z,14.30
2023-02-23T22:26:11.645Z,14.33
2023-02-23T22:28:39.684Z,15.40
2023-02-23T22:31:09.202Z,14.97
2023-02-23T22:33:38.108Z,14.70
2023-02-23T22:36:08.083Z,13.93
2023-02-23T22:38:36.086Z,14.27
2023-02-23T22:41:08.055Z,14.33
2023-02-23T22:43:36.013Z,14.97
2023-02-23T22:46:04.006Z,15.50
2023-02-23T22:48:31.766Z,17.17
2023-02-23T22:51:00.190Z,15.20
2023-02-23T22:53:28.186Z,15.90
2023-02-23T22:55:57.028Z,16.83
2023-02-23T22:58:27.588Z,19.60
2023-02-23T23:01:05.639Z,18.37
2023-02-23T23:03:35.754Z,16.37
2023-02-23T23:06:04.412Z,16.33
2023-02-23T23:08:36.360Z,16.43
2023-02-23T23:11:09.302Z,19.63
2023-02-23T23:13:44.584Z,20.90
2023-02-23T23:16:28.912Z,17.83
2023-02-23T23:19:02.191Z,18.03
2023-02-23T23:21:31.724Z,19.93
2023-02-23T23:24:02.783Z,17.23
2023-02-23T23:26:31.704Z,18.30
2023-02-23T23:29:04.551Z,17.47
2023-02-23T23:31:34.607Z,16.97
2023-02-23T23:34:04.683Z,16.40
2023-02-23T23:36:35.076Z,15.53
2023-02-23T23:39:04.052Z,16.63
2023-02-23T23:41:35.222Z,15.53
2023-02-23T23:44:05.713Z,16.70
2023-02-23T23:46:37.526Z,17.20
2023-02-23T23:49:08.019Z,16.33
2023-02-23T23:51:38.680Z,15.20
2023-02-23T23:54:09.584Z,15.37
2023-02-23T23:56:37.791Z,15.10
2023-02-23T23:59:10.876Z,14.13
